Time;durP1;ratioP1;P1;durP2;ratioP2;P2;SDS_P1;SDS_P2;PMS_P1;PMS_P2;Temp;Humidity;BMP_temperature;BMP_pressure;BME280_temperature;BME280_humidity;BME280_pressure;Samples;Min_cycle;Max_cycle;Signal;HPM_P1;HPM_P2
2021/12/13 00:01:51;;;;;;;17.05;10.60;;;4.80;99.90;;;;;;5032432;28;20032;-67
2021/12/13 00:04:22;;;;;;;20.95;11.38;;;4.80;99.90;;;;;;5012080;28;20124;-66
2021/12/13 00:06:58;;;;;;;20.83;10.45;;;4.80;99.90;;;;;;5033446;28;20024;-68
2021/12/13 00:09:26;;;;;;;17.67;10.90;;;4.80;99.90;;;;;;5034001;28;20116;-66
2021/12/13 00:11:59;;;;;;;20.15;11.77;;;4.80;99.90;;;;;;5033403;28;20427;-66
2021/12/13 00:14:36;;;;;;;17.08;10.40;;;4.80;99.90;;;;;;5033516;28;20036;-67
2021/12/13 00:17:12;;;;;;;19.02;10.82;;;4.80;99.90;;;;;;5033683;28;20083;-66
2021/12/13 00:19:42;;;;;;;17.05;10.23;;;4.80;99.90;;;;;;5046296;28;20029;-66
2021/12/13 00:22:14;;;;;;;16.08;9.70;;;4.80;99.90;;;;;;5014047;28;20043;-66
2021/12/13 00:24:42;;;;;;;17.73;10.37;;;4.80;99.90;;;;;;5019691;28;20538;-67
2021/12/13 00:27:18;;;;;;;19.45;10.88;;;4.80;99.90;;;;;;5049773;28;20021;-66
2021/12/13 00:30:04;;;;;;;19.38;10.48;;;4.80;99.90;;;;;;5047562;28;20025;-67
2021/12/13 00:33:11;;;;;;;18.00;10.50;;;4.80;99.90;;;;;;5041520;28;20020;-66
2021/12/13 00:35:59;;;;;;;21.35;10.45;;;4.80;99.90;;;;;;4956720;28;20035;-66
2021/12/13 00:38:28;;;;;;;18.25;10.55;;;4.80;99.90;;;;;;5036505;28;20110;-65
2021/12/13 00:41:03;;;;;;;18.08;10.68;;;4.80;99.90;;;;;;5032945;28;20029;-66
2021/12/13 00:43:36;;;;;;;17.73;10.93;;;4.80;99.90;;;;;;5033365;28;20029;-66
2021/12/13 00:46:07;;;;;;;17.60;9.95;;;4.80;99.90;;;;;;5032844;28;20017;-67
2021/12/13 00:48:35;;;;;;;20.90;10.40;;;4.70;99.90;;;;;;5032836;28;20029;-67
2021/12/13 00:51:07;;;;;;;23.23;9.68;;;4.80;99.90;;;;;;5031653;28;20051;-66
2021/12/13 00:53:36;;;;;;;18.25;10.10;;;4.80;99.90;;;;;;5033053;28;20033;-66
2021/12/13 00:56:40;;;;;;;22.42;9.38;;;4.80;99.90;;;;;;5033078;28;20029;-66
2021/12/13 00:59:08;;;;;;;17.80;9.07;;;4.80;99.90;;;;;;5048960;28;20422;-68
2021/12/13 01:01:35;;;;;;;18.90;10.25;;;4.80;99.90;;;;;;5033115;28;20429;-66
2021/12/13 01:04:05;;;;;;;17.02;10.25;;;4.80;99.90;;;;;;5032698;28;20029;-66
2021/12/13 01:07:09;;;;;;;16.98;9.77;;;4.80;99.90;;;;;;5033106;28;20048;-66
2021/12/13 01:09:53;;;;;;;21.35;10.25;;;4.80;99.90;;;;;;5049063;28;20032;-68
2021/12/13 01:12:20;;;;;;;33.97;9.57;;;4.80;99.90;;;;;;5033130;28;20416;-66
2021/12/13 01:14:59;;;;;;;41.85;10.48;;;4.80;99.90;;;;;;5032699;28;20060;-66
2021/12/13 01:17:45;;;;;;;18.67;10.18;;;4.80;99.90;;;;;;5032691;28;20029;-68
2021/12/13 01:20:24;;;;;;;15.35;9.55;;;4.80;99.90;;;;;;5022330;28;20069;-67
2021/12/13 01:23:14;;;;;;;15.70;9.75;;;4.80;99.90;;;;;;5015271;28;20037;-66
2021/12/13 01:25:59;;;;;;;20.08;10.18;;;4.80;99.90;;;;;;5032856;28;20029;-66
2021/12/13 01:28:29;;;;;;;21.25;10.55;;;4.80;99.90;;;;;;5032134;28;20033;-67
2021/12/13 01:30:59;;;;;;;46.03;11.23;;;4.80;99.90;;;;;;5032919;28;20048;-66
2021/12/13 01:33:27;;;;;;;25.30;10.48;;;4.80;99.90;;;;;;5032448;28;20021;-66
2021/12/13 01:35:59;;;;;;;18.38;9.93;;;4.80;99.90;;;;;;5035244;28;20158;-65
2021/12/13 01:38:35;;;;;;;20.20;10.68;;;4.80;99.90;;;;;;5037710;28;20123;-69
2021/12/13 01:41:11;;;;;;;20.80;10.57;;;4.80;99.90;;;;;;5032215;28;20021;-66
2021/12/13 01:43:42;;;;;;;17.15;9.20;;;4.90;99.90;;;;;;5028656;28;20053;-67
2021/12/13 01:46:08;;;;;;;17.08;9.43;;;4.90;99.90;;;;;;5032567;28;20021;-68
2021/12/13 01:48:44;;;;;;;21.73;9.60;;;4.90;99.90;;;;;;5035760;28;20036;-68
2021/12/13 01:51:14;;;;;;;19.55;9.98;;;4.90;99.90;;;;;;5036006;28;20032;-69
2021/12/13 01:53:55;;;;;;;18.63;9.98;;;4.90;99.90;;;;;;5036412;28;20036;-68
2021/12/13 01:59:15;;;;;;;18.70;9.20;;;4.90;99.90;;;;;;5054139;28;20017;-68
2021/12/13 02:01:43;;;;;;;14.48;8.82;;;4.90;99.90;;;;;;5035585;28;20061;-67
2021/12/13 02:04:13;;;;;;;16.00;8.82;;;4.90;99.90;;;;;;5036412;28;20033;-67
2021/12/13 02:06:46;;;;;;;15.25;8.93;;;4.90;99.90;;;;;;5035801;28;20108;-66
2021/12/13 02:09:25;;;;;;;18.48;9.27;;;4.90;99.90;;;;;;5053788;28;20374;-66
2021/12/13 02:11:55;;;;;;;18.40;8.80;;;4.90;99.90;;;;;;5035820;28;20033;-66
2021/12/13 02:14:27;;;;;;;18.85;9.20;;;4.90;99.90;;;;;;5054019;28;20040;-69
2021/12/13 02:17:10;;;;;;;19.95;9.23;;;4.90;99.90;;;;;;5035657;28;20037;-67
2021/12/13 02:19:51;;;;;;;16.73;9.10;;;4.90;99.90;;;;;;5035905;28;20385;-68
2021/12/13 02:22:43;;;;;;;16.77;8.80;;;4.90;99.90;;;;;;5035569;28;20021;-67
2021/12/13 02:25:29;;;;;;;15.82;8.57;;;4.90;99.90;;;;;;5035722;28;20116;-67
2021/12/13 02:28:09;;;;;;;15.60;8.30;;;4.90;99.90;;;;;;5035415;28;20017;-68
2021/12/13 02:30:37;;;;;;;15.30;8.38;;;4.90;99.90;;;;;;5035707;28;20025;-68
2021/12/13 02:33:06;;;;;;;14.82;8.60;;;4.90;99.90;;;;;;5035659;28;20436;-67
2021/12/13 02:35:38;;;;;;;13.77;8.02;;;5.00;99.90;;;;;;5036815;28;20044;-66
2021/12/13 02:38:08;;;;;;;13.18;7.90;;;5.00;99.90;;;;;;5047106;28;20433;-66
2021/12/13 02:40:35;;;;;;;13.35;7.68;;;5.00;99.90;;;;;;5037052;28;20033;-67
2021/12/13 02:43:03;;;;;;;17.73;8.88;;;5.00;99.90;;;;;;5035422;28;20051;-68
2021/12/13 02:45:32;;;;;;;17.35;8.88;;;5.00;99.90;;;;;;5035441;28;20028;-67
2021/12/13 02:48:14;;;;;;;17.30;8.73;;;5.00;99.90;;;;;;5034859;28;20392;-67
2021/12/13 02:50:55;;;;;;;32.10;8.68;;;5.10;99.90;;;;;;5035057;28;20029;-67
2021/12/13 02:53:30;;;;;;;22.73;8.33;;;5.10;99.90;;;;;;5034961;28;20029;-68
2021/12/13 02:55:56;;;;;;;18.25;8.68;;;5.10;99.90;;;;;;5035412;28;20298;-67
2021/12/13 02:58:25;;;;;;;28.70;8.70;;;5.10;99.90;;;;;;5032343;28;20064;-66
2021/12/13 03:01:09;;;;;;;19.77;8.27;;;5.10;99.90;;;;;;5027970;28;20025;-67
2021/12/13 03:03:38;;;;;;;64.32;8.95;;;5.10;99.90;;;;;;5035258;28;20028;-67
2021/12/13 03:06:07;;;;;;;19.05;8.45;;;5.10;99.90;;;;;;5066920;22;20036;-70
2021/12/13 03:08:41;;;;;;;16.70;8.77;;;5.10;99.90;;;;;;5057045;28;20063;-70
2021/12/13 03:11:22;;;;;;;20.70;8.50;;;5.10;99.90;;;;;;5047470;28;20508;-70
2021/12/13 03:14:04;;;;;;;34.60;8.55;;;5.10;99.90;;;;;;5037474;28;20439;-70
2021/12/13 03:16:38;;;;;;;20.67;9.03;;;5.10;99.90;;;;;;5031611;28;20037;-70
2021/12/13 03:19:17;;;;;;;25.38;9.88;;;5.10;99.90;;;;;;5038777;28;20294;-70
2021/12/13 03:22:15;;;;;;;32.83;10.35;;;5.10;99.90;;;;;;5051287;28;20021;-70
2021/12/13 03:25:03;;;;;;;24.75;10.27;;;5.20;99.90;;;;;;5043517;28;20036;-70
2021/12/13 03:27:46;;;;;;;23.70;10.38;;;5.10;99.90;;;;;;5050923;28;20425;-71
2021/12/13 03:30:18;;;;;;;;;;;5.10;99.90;;;;;;5051467;28;20065;-70
2021/12/13 03:32:52;;;;;;;20.67;9.15;;;5.10;99.90;;;;;;5051281;28;19916;-70
2021/12/13 03:35:30;;;;;;;24.45;10.18;;;5.10;99.90;;;;;;5050527;28;20094;-70
2021/12/13 03:38:01;;;;;;;23.25;10.25;;;5.10;99.90;;;;;;5038572;28;20029;-70
2021/12/13 03:40:29;;;;;;;21.20;10.40;;;5.10;99.90;;;;;;5040457;28;20017;-70
2021/12/13 03:42:59;;;;;;;24.13;10.18;;;5.10;99.90;;;;;;5045385;28;20021;-70
2021/12/13 03:45:40;;;;;;;26.02;10.93;;;5.10;99.90;;;;;;5030985;28;20030;-70
2021/12/13 03:48:08;;;;;;;25.15;9.73;;;5.10;99.90;;;;;;5060938;28;20025;-70
2021/12/13 03:50:42;;;;;;;27.20;10.45;;;5.10;99.90;;;;;;5030715;28;20025;-70
2021/12/13 03:53:15;;;;;;;28.90;11.07;;;5.10;99.90;;;;;;5039400;28;20101;-71
2021/12/13 03:55:46;;;;;;;23.15;10.45;;;5.10;99.90;;;;;;5052023;28;20401;-71
2021/12/13 03:58:14;;;;;;;25.60;10.50;;;5.20;99.90;;;;;;5043491;28;20029;-71
2021/12/13 04:01:01;;;;;;;23.85;10.40;;;5.20;99.90;;;;;;5061084;28;20028;-71
2021/12/13 04:03:29;;;;;;;23.75;10.52;;;5.20;99.90;;;;;;5070725;28;20023;-70
2021/12/13 04:05:56;;;;;;;23.42;10.45;;;5.20;99.90;;;;;;5053075;28;20032;-71
2021/12/13 04:08:23;;;;;;;22.55;9.40;;;5.20;99.90;;;;;;5045953;28;20029;-70
2021/12/13 04:10:53;;;;;;;21.38;10.05;;;5.10;99.90;;;;;;5050002;28;20054;-70
2021/12/13 04:13:23;;;;;;;29.38;10.95;;;5.10;99.90;;;;;;5050359;28;20090;-70
2021/12/13 04:16:15;;;;;;;27.42;10.70;;;5.10;99.90;;;;;;5050054;28;20020;-70
2021/12/13 04:21:14;;;;;;;27.20;10.73;;;5.10;99.90;;;;;;5042407;28;20116;-70
2021/12/13 04:23:47;;;;;;;25.85;10.02;;;5.20;99.90;;;;;;5045521;28;20030;-70
2021/12/13 04:26:14;;;;;;;26.55;10.93;;;5.20;99.90;;;;;;5046379;28;20487;-70
2021/12/13 04:28:43;;;;;;;26.08;10.15;;;5.20;99.90;;;;;;5048947;28;20037;-70
2021/12/13 04:31:13;;;;;;;26.27;10.25;;;5.20;99.90;;;;;;5050157;28;20373;-70
2021/12/13 04:33:40;;;;;;;27.77;10.82;;;5.20;99.90;;;;;;5050321;28;20025;-71
2021/12/13 04:36:10;;;;;;;26.15;10.38;;;5.20;99.90;;;;;;5043356;28;20425;-72
2021/12/13 04:38:55;;;;;;;21.35;9.90;;;5.20;99.90;;;;;;5037522;28;20029;-70
2021/12/13 04:41:38;;;;;;;24.63;10.27;;;5.20;99.90;;;;;;5038562;28;20535;-70
2021/12/13 04:44:25;;;;;;;20.25;9.27;;;5.20;99.90;;;;;;5030099;28;20137;-71
2021/12/13 04:46:54;;;;;;;17.15;8.23;;;5.20;99.90;;;;;;5045831;28;20084;-72
2021/12/13 04:49:23;;;;;;;22.83;9.63;;;5.20;99.90;;;;;;5048651;28;20028;-72
2021/12/13 04:51:59;;;;;;;21.15;9.07;;;5.30;99.90;;;;;;5048844;28;20441;-72
2021/12/13 04:54:27;;;;;;;18.27;8.75;;;5.30;99.90;;;;;;5041077;28;20032;-71
2021/12/13 04:56:55;;;;;;;18.23;8.50;;;5.30;99.90;;;;;;5049231;28;20103;-71
2021/12/13 04:59:22;;;;;;;22.58;9.63;;;5.30;99.90;;;;;;5046850;28;20028;-71
2021/12/13 05:01:53;;;;;;;20.58;9.20;;;5.30;99.90;;;;;;5062618;28;20025;-71
2021/12/13 05:04:21;;;;;;;17.48;8.70;;;5.30;99.90;;;;;;5049761;28;20400;-71
2021/12/13 05:06:49;;;;;;;20.58;9.68;;;5.20;99.90;;;;;;5048649;28;20473;-70
2021/12/13 05:09:17;;;;;;;19.15;8.73;;;5.20;99.90;;;;;;5048782;28;20033;-71
2021/12/13 05:11:52;;;;;;;21.77;9.30;;;5.20;99.90;;;;;;5049062;28;20032;-71
2021/12/13 05:14:45;;;;;;;19.65;9.57;;;5.30;99.90;;;;;;5049589;28;20420;-71
2021/12/13 05:17:15;;;;;;;;;;;5.20;99.90;;;;;;5048912;28;20116;-72
2021/12/13 05:19:46;;;;;;;23.63;9.60;;;5.20;99.90;;;;;;5049285;28;20312;-71
2021/12/13 05:22:14;;;;;;;20.38;9.75;;;5.20;99.90;;;;;;5049513;28;20029;-71
2021/12/13 05:24:51;;;;;;;24.17;10.38;;;5.20;99.90;;;;;;5041004;28;20021;-72
2021/12/13 05:27:32;;;;;;;22.27;9.55;;;5.20;99.90;;;;;;5048537;28;20121;-72
2021/12/13 05:30:24;;;;;;;24.02;10.55;;;5.20;99.90;;;;;;5047445;28;20390;-71
2021/12/13 05:32:55;;;;;;;22.85;9.98;;;5.20;99.90;;;;;;5045639;28;20508;-71
2021/12/13 05:35:31;;;;;;;26.83;10.73;;;5.20;99.90;;;;;;5049086;28;20060;-72
2021/12/13 05:38:04;;;;;;;24.38;10.05;;;5.20;99.90;;;;;;5045361;28;20021;-71
2021/12/13 05:40:34;;;;;;;26.65;10.68;;;5.20;99.90;;;;;;5038655;28;20111;-71
2021/12/13 05:43:13;;;;;;;28.40;11.07;;;5.30;99.90;;;;;;5032624;28;20057;-71
2021/12/13 05:45:43;;;;;;;26.85;11.05;;;5.30;99.90;;;;;;5048778;28;20091;-71
2021/12/13 05:48:12;;;;;;;23.83;11.00;;;5.30;99.90;;;;;;5048088;28;20049;-72
2021/12/13 05:50:59;;;;;;;27.67;11.18;;;5.30;99.90;;;;;;5048063;28;20045;-70
2021/12/13 05:53:29;;;;;;;26.27;10.95;;;5.30;99.90;;;;;;5048731;28;20021;-71
2021/12/13 05:55:57;;;;;;;23.73;11.20;;;5.30;99.90;;;;;;5048607;28;20029;-68
2021/12/13 05:58:44;;;;;;;27.38;10.95;;;5.30;99.90;;;;;;5047313;28;20060;-67
2021/12/13 06:01:36;;;;;;;27.35;12.07;;;5.30;99.90;;;;;;5052096;28;20024;-69
2021/12/13 06:04:24;;;;;;;26.23;11.60;;;5.30;99.90;;;;;;5039520;28;20071;-69
2021/12/13 06:06:54;;;;;;;22.67;10.32;;;5.30;99.90;;;;;;5048524;28;20120;-68
2021/12/13 06:10:01;;;;;;;26.80;10.63;;;5.30;99.90;;;;;;5039921;28;20040;-69
2021/12/13 06:12:44;;;;;;;22.95;10.30;;;5.30;99.90;;;;;;5046614;28;20026;-70
2021/12/13 06:15:16;;;;;;;23.52;10.50;;;5.30;99.90;;;;;;5050204;28;20029;-69
2021/12/13 06:17:56;;;;;;;22.00;10.03;;;5.30;99.90;;;;;;5049180;28;20493;-68
2021/12/13 06:20:27;;;;;;;27.90;13.30;;;5.30;99.90;;;;;;5048836;28;20275;-69
2021/12/13 06:23:17;;;;;;;28.13;11.70;;;5.30;99.90;;;;;;5049603;28;20032;-68
2021/12/13 06:25:47;;;;;;;30.30;10.70;;;5.30;99.90;;;;;;5044915;28;20278;-68
2021/12/13 06:28:26;;;;;;;29.05;10.50;;;5.30;99.90;;;;;;5061023;28;20111;-69
2021/12/13 06:31:08;;;;;;;30.88;9.82;;;5.30;99.90;;;;;;5052977;28;20569;-69
2021/12/13 06:34:06;;;;;;;27.13;10.30;;;5.30;99.90;;;;;;5050617;28;20400;-70
2021/12/13 06:36:42;;;;;;;31.75;12.32;;;5.30;99.90;;;;;;5052227;28;20029;-69
2021/12/13 06:39:23;;;;;;;32.92;10.13;;;5.30;99.90;;;;;;5042466;28;20507;-67
2021/12/13 06:42:02;;;;;;;26.90;9.48;;;5.30;99.90;;;;;;5048467;28;20082;-68
2021/12/13 06:44:37;;;;;;;22.95;9.23;;;5.30;99.90;;;;;;5052790;28;20052;-67
2021/12/13 06:47:10;;;;;;;22.15;8.77;;;5.30;99.90;;;;;;5052181;28;20425;-67
2021/12/13 06:49:38;;;;;;;26.67;9.82;;;5.30;99.90;;;;;;5052532;28;20083;-67
2021/12/13 06:52:12;;;;;;;23.58;9.63;;;5.30;99.90;;;;;;5052322;28;20036;-67
2021/12/13 06:54:44;;;;;;;25.52;9.85;;;5.30;99.90;;;;;;5052663;28;20029;-68
2021/12/13 06:57:21;;;;;;;26.25;10.98;;;5.30;99.90;;;;;;5052173;28;20051;-68
2021/12/13 06:59:50;;;;;;;22.73;9.88;;;5.30;99.90;;;;;;5052233;28;20044;-68
2021/12/13 07:02:26;;;;;;;25.70;10.27;;;5.40;99.90;;;;;;5052706;28;20025;-68
2021/12/13 07:05:08;;;;;;;24.60;9.93;;;5.30;99.90;;;;;;5050606;28;20066;-68
2021/12/13 07:07:48;;;;;;;23.02;10.13;;;5.30;99.90;;;;;;5047666;28;20083;-69
2021/12/13 07:10:19;;;;;;;20.90;10.18;;;5.40;99.90;;;;;;5051138;28;20126;-69
2021/12/13 07:13:01;;;;;;;25.13;10.77;;;5.30;99.90;;;;;;5052455;28;20040;-67
2021/12/13 07:15:50;;;;;;;24.10;10.77;;;5.30;99.90;;;;;;5051745;28;20032;-69
2021/12/13 07:18:29;;;;;;;22.73;10.52;;;5.30;99.90;;;;;;5050912;28;20029;-68
2021/12/13 07:21:04;;;;;;;24.67;10.60;;;5.30;99.90;;;;;;5048073;28;20055;-69
2021/12/13 07:23:56;;;;;;;21.20;9.80;;;5.40;99.90;;;;;;5046711;28;20024;-69
2021/12/13 07:26:58;;;;;;;26.70;10.07;;;5.40;99.90;;;;;;5035661;28;20041;-69
2021/12/13 07:29:30;;;;;;;44.10;20.13;;;5.40;99.90;;;;;;5040550;28;20511;-70
2021/12/13 07:32:10;;;;;;;25.67;10.57;;;5.40;99.90;;;;;;5051927;28;20388;-70
2021/12/13 07:34:51;;;;;;;27.13;11.25;;;5.50;99.90;;;;;;5050187;28;20033;-69
2021/12/13 07:37:32;;;;;;;26.08;9.88;;;5.40;99.90;;;;;;5045249;28;20458;-69
2021/12/13 07:40:19;;;;;;;25.25;10.55;;;5.40;99.90;;;;;;5045065;28;20051;-69
2021/12/13 07:43:02;;;;;;;25.25;11.75;;;5.50;99.90;;;;;;5051566;28;20366;-69
2021/12/13 07:45:54;;;;;;;25.92;10.00;;;5.50;99.90;;;;;;5051240;28;20087;-69
2021/12/13 07:48:23;;;;;;;43.25;19.88;;;5.50;99.90;;;;;;5050618;28;20091;-69
2021/12/13 07:51:15;;;;;;;31.27;12.48;;;5.60;99.90;;;;;;5051381;28;20464;-68
2021/12/13 07:53:44;;;;;;;35.73;17.03;;;5.50;99.90;;;;;;5052537;28;20131;-69
2021/12/13 07:56:13;;;;;;;33.70;11.77;;;5.50;99.90;;;;;;5046012;28;20033;-69
2021/12/13 07:58:47;;;;;;;29.70;11.68;;;5.50;99.90;;;;;;5049925;28;20025;-69
2021/12/13 08:01:25;;;;;;;29.98;12.60;;;5.50;99.90;;;;;;5051231;28;20445;-69
2021/12/13 08:04:26;;;;;;;31.20;12.82;;;5.50;99.90;;;;;;5051177;28;20477;-69
2021/12/13 08:07:14;;;;;;;29.92;12.98;;;5.50;99.90;;;;;;5034722;28;20042;-67
2021/12/13 08:09:56;;;;;;;26.00;9.00;;;5.50;99.90;;;;;;5060186;28;20184;-69
2021/12/13 08:12:30;;;;;;;25.17;9.55;;;5.60;99.90;;;;;;5051054;28;20115;-69
2021/12/13 08:15:15;;;;;;;29.42;10.20;;;5.60;99.90;;;;;;5050310;28;20028;-68
2021/12/13 08:17:52;;;;;;;22.63;10.00;;;5.60;99.90;;;;;;5032277;28;20120;-69
2021/12/13 08:20:27;;;;;;;21.92;9.25;;;5.60;99.90;;;;;;5039974;28;20029;-69
2021/12/13 08:22:54;;;;;;;26.83;10.07;;;5.60;99.90;;;;;;5049283;28;20103;-69
2021/12/13 08:25:29;;;;;;;28.02;12.25;;;5.60;99.90;;;;;;5049566;28;20032;-70
2021/12/13 08:28:04;;;;;;;31.63;11.18;;;5.50;99.90;;;;;;5047553;28;20025;-70
2021/12/13 08:30:45;;;;;;;30.30;11.25;;;5.60;99.90;;;;;;5049223;28;20029;-69
2021/12/13 08:33:15;;;;;;;33.30;11.18;;;5.60;99.90;;;;;;5063771;28;20042;-68
2021/12/13 08:35:47;;;;;;;32.83;11.27;;;5.60;99.90;;;;;;5046954;28;20033;-69
2021/12/13 08:38:46;;;;;;;41.60;11.57;;;5.60;99.90;;;;;;5044706;28;20024;-69
2021/12/13 08:41:14;;;;;;;26.15;10.57;;;5.60;99.90;;;;;;5027811;28;20461;-69
2021/12/13 08:43:48;;;;;;;31.52;10.63;;;5.60;99.90;;;;;;5037868;28;20653;-69
2021/12/13 08:46:43;;;;;;;29.05;10.50;;;5.60;99.90;;;;;;5049884;28;20025;-69
2021/12/13 08:49:18;;;;;;;27.33;10.40;;;5.60;99.90;;;;;;5039259;28;20374;-69
2021/12/13 08:52:03;;;;;;;53.35;12.30;;;5.60;99.90;;;;;;5030632;28;20508;-70
2021/12/13 08:54:37;;;;;;;32.85;11.98;;;5.60;99.90;;;;;;5046038;28;20495;-69
2021/12/13 08:57:07;;;;;;;35.83;11.93;;;5.60;99.90;;;;;;5041463;28;20462;-69
2021/12/13 08:59:33;;;;;;;41.67;10.77;;;5.60;99.90;;;;;;5057045;28;20504;-70
2021/12/13 09:02:10;;;;;;;39.95;10.50;;;5.60;99.90;;;;;;5064314;28;20047;-69
2021/12/13 09:04:43;;;;;;;37.00;11.52;;;5.60;99.90;;;;;;5030540;28;20072;-69
2021/12/13 09:07:12;;;;;;;34.72;10.77;;;5.60;99.90;;;;;;5043833;28;20074;-70
2021/12/13 09:09:46;;;;;;;51.15;11.68;;;5.70;99.90;;;;;;5049312;28;20040;-69
2021/12/13 09:12:24;;;;;;;42.72;12.00;;;5.70;99.90;;;;;;5049996;28;20516;-69
2021/12/13 09:14:53;;;;;;;40.95;11.52;;;5.70;99.90;;;;;;5050096;28;20028;-69
2021/12/13 09:17:34;;;;;;;40.50;10.90;;;5.70;99.90;;;;;;5049559;28;20081;-70
2021/12/13 09:20:14;;;;;;;33.80;10.75;;;5.70;99.90;;;;;;5044921;28;20029;-70
2021/12/13 09:22:49;;;;;;;35.75;11.77;;;5.70;99.90;;;;;;5049712;28;20089;-69
2021/12/13 09:25:26;;;;;;;31.88;11.15;;;5.70;99.90;;;;;;5030313;28;20021;-70
2021/12/13 09:27:59;;;;;;;38.30;12.15;;;5.70;99.90;;;;;;5049297;28;20036;-70
2021/12/13 09:30:33;;;;;;;39.65;13.55;;;5.80;99.90;;;;;;5050152;28;20112;-69
2021/12/13 09:33:06;;;;;;;33.35;10.30;;;5.80;99.90;;;;;;5050263;28;20025;-69
2021/12/13 09:35:43;;;;;;;27.02;9.18;;;5.90;99.90;;;;;;5050873;28;20040;-70
2021/12/13 09:38:21;;;;;;;35.90;10.82;;;5.90;99.90;;;;;;5046166;28;20045;-69
2021/12/13 09:41:27;;;;;;;27.27;10.90;;;6.00;99.90;;;;;;5049235;28;20025;-69
2021/12/13 09:44:17;;;;;;;24.55;9.20;;;6.10;99.90;;;;;;5037070;28;20119;-69
2021/12/13 09:46:58;;;;;;;23.27;9.00;;;6.20;99.90;;;;;;5049268;28;20025;-69
2021/12/13 09:49:31;;;;;;;22.60;9.57;;;6.20;99.90;;;;;;5050986;28;20401;-69
2021/12/13 09:52:11;;;;;;;26.27;9.35;;;6.30;99.90;;;;;;5049770;28;20025;-69
2021/12/13 09:55:08;;;;;;;22.85;9.15;;;6.40;99.90;;;;;;5044120;28;20029;-68
2021/12/13 09:57:56;;;;;;;18.80;8.57;;;6.40;99.90;;;;;;5047637;28;20025;-69
2021/12/13 10:00:30;;;;;;;22.88;7.75;;;6.50;99.90;;;;;;5049620;28;20021;-69
2021/12/13 10:03:01;;;;;;;28.63;12.80;;;6.50;99.90;;;;;;5049701;28;20040;-68
2021/12/13 10:05:36;;;;;;;16.42;7.55;;;6.50;99.90;;;;;;5049426;28;20029;-68
2021/12/13 10:08:10;;;;;;;17.63;7.05;;;6.50;99.90;;;;;;5049430;28;20046;-69
2021/12/13 10:10:48;;;;;;;21.02;8.65;;;6.50;99.90;;;;;;5045555;28;20389;-68
2021/12/13 10:13:23;;;;;;;20.63;8.05;;;6.50;99.90;;;;;;5053385;28;20036;-68
2021/12/13 10:15:59;;;;;;;18.60;7.90;;;6.50;99.90;;;;;;5053414;28;20127;-68
2021/12/13 10:18:30;;;;;;;21.65;8.57;;;6.50;99.90;;;;;;5052413;28;20021;-68
2021/12/13 10:21:22;;;;;;;22.20;10.20;;;6.50;99.90;;;;;;5049033;28;20431;-68
2021/12/13 10:23:52;;;;;;;21.17;10.10;;;6.50;99.90;;;;;;5037496;28;20037;-68
2021/12/13 10:26:23;;;;;;;18.30;8.80;;;6.50;99.90;;;;;;5036767;28;20025;-68
2021/12/13 10:28:57;;;;;;;18.88;8.18;;;6.50;99.90;;;;;;5043139;28;20029;-68
2021/12/13 10:31:35;;;;;;;23.58;8.60;;;6.50;99.90;;;;;;5053221;28;20060;-68
2021/12/13 10:34:05;;;;;;;24.83;10.20;;;6.50;99.90;;;;;;5053064;28;20025;-68
2021/12/13 10:36:31;;;;;;;22.88;9.35;;;6.50;99.90;;;;;;5050541;28;20029;-69
2021/12/13 10:39:06;;;;;;;24.35;9.82;;;6.50;99.90;;;;;;5043257;28;20033;-68
2021/12/13 10:41:37;;;;;;;27.58;10.77;;;6.50;99.90;;;;;;5044617;28;20021;-68
2021/12/13 10:44:08;;;;;;;28.23;10.55;;;6.50;99.90;;;;;;5061032;28;20028;-68
2021/12/13 10:46:39;;;;;;;30.90;10.77;;;6.50;99.90;;;;;;5071371;28;20025;-68
2021/12/13 10:49:20;;;;;;;29.15;11.57;;;6.50;99.90;;;;;;5071590;28;20404;-67
2021/12/13 10:51:54;;;;;;;39.55;12.93;;;6.50;99.90;;;;;;5045579;28;20032;-69
2021/12/13 10:54:30;;;;;;;29.95;11.27;;;6.50;99.90;;;;;;5052341;28;20487;-68
2021/12/13 10:57:05;;;;;;;33.80;13.00;;;6.50;99.90;;;;;;5053465;28;20025;-68
2021/12/13 10:59:34;;;;;;;35.40;12.52;;;6.60;99.90;;;;;;5052446;28;20492;-68
2021/12/13 11:02:07;;;;;;;33.83;12.55;;;6.60;99.90;;;;;;5052634;28;20094;-68
2021/12/13 11:04:38;;;;;;;32.30;11.48;;;6.60;99.90;;;;;;5052552;28;20017;-67
2021/12/13 11:07:06;;;;;;;28.10;11.30;;;6.70;99.90;;;;;;5051693;28;20029;-68
2021/12/13 11:09:34;;;;;;;24.60;10.52;;;6.70;99.90;;;;;;5041367;28;20025;-67
2021/12/13 11:12:14;;;;;;;26.25;10.65;;;6.80;99.90;;;;;;5046521;28;20526;-68
2021/12/13 11:14:43;;;;;;;33.53;15.45;;;6.80;99.90;;;;;;5052445;28;20025;-68
2021/12/13 11:17:15;;;;;;;24.00;11.25;;;6.90;99.90;;;;;;5051617;28;20025;-68
2021/12/13 11:19:46;;;;;;;20.30;9.60;;;7.00;99.90;;;;;;5051380;28;20424;-67
2021/12/13 11:22:20;;;;;;;19.15;8.88;;;7.10;99.90;;;;;;5051775;28;20362;-67
2021/12/13 11:24:50;;;;;;;18.48;8.05;;;7.20;99.90;;;;;;5052410;28;20420;-66
2021/12/13 11:27:31;;;;;;;17.20;7.57;;;7.20;99.90;;;;;;5064616;28;20477;-67
2021/12/13 11:29:59;;;;;;;14.40;7.72;;;7.20;99.90;;;;;;5032295;28;20034;-68
2021/12/13 11:32:34;;;;;;;12.93;7.35;;;7.30;99.90;;;;;;5031974;28;20037;-67
2021/12/13 11:35:15;;;;;;;14.98;8.07;;;7.30;99.90;;;;;;5032201;28;20025;-67
2021/12/13 11:38:06;;;;;;;13.80;8.10;;;7.40;99.90;;;;;;5041131;28;20036;-67
2021/12/13 11:40:59;;;;;;;16.27;8.13;;;7.40;99.90;;;;;;5049988;28;20049;-67
2021/12/13 11:43:39;;;;;;;13.32;6.97;;;7.40;99.90;;;;;;5054332;28;20051;-68
2021/12/13 11:46:43;;;;;;;14.35;7.65;;;7.40;99.90;;;;;;5066380;28;20017;-67
2021/12/13 11:49:11;;;;;;;15.73;7.25;;;7.40;99.90;;;;;;5069798;28;20522;-68
2021/12/13 11:51:57;;;;;;;13.60;7.80;;;7.40;99.90;;;;;;5055968;28;20370;-67
2021/12/13 11:54:43;;;;;;;15.50;7.72;;;7.40;99.90;;;;;;5050338;28;20032;-67
2021/12/13 11:57:46;;;;;;;16.10;7.85;;;7.50;99.90;;;;;;5040171;28;20026;-68
2021/12/13 12:00:43;;;;;;;17.05;7.72;;;7.50;99.90;;;;;;5049612;28;20524;-68
2021/12/13 12:03:46;;;;;;;13.15;7.63;;;7.50;99.90;;;;;;5050597;28;20074;-69
2021/12/13 12:06:48;;;;;;;13.35;7.57;;;7.50;99.90;;;;;;5036813;28;20029;-69
2021/12/13 12:09:59;;;;;;;17.75;8.23;;;7.60;99.90;;;;;;5046895;28;20087;-68
2021/12/13 12:12:39;;;;;;;17.58;8.15;;;7.50;99.90;;;;;;5010119;28;20123;-68
2021/12/13 12:15:07;;;;;;;16.70;8.38;;;7.50;99.90;;;;;;5051362;28;20028;-69
2021/12/13 12:17:34;;;;;;;16.00;7.95;;;7.50;99.90;;;;;;5049936;28;20051;-68
2021/12/13 12:20:00;;;;;;;14.40;7.57;;;7.50;99.90;;;;;;5047454;28;20021;-69
2021/12/13 12:22:52;;;;;;;17.58;7.45;;;7.50;99.90;;;;;;5050027;28;20032;-68
2021/12/13 12:25:21;;;;;;;11.83;6.97;;;7.50;99.90;;;;;;5041745;28;20037;-69
2021/12/13 12:27:47;;;;;;;13.02;7.03;;;7.40;99.90;;;;;;5046660;28;20658;-67
2021/12/13 12:30:17;;;;;;;16.13;7.75;;;7.40;99.90;;;;;;5048739;28;20049;-68
2021/12/13 12:32:50;;;;;;;15.02;7.40;;;7.40;99.90;;;;;;5043669;28;20025;-67
2021/12/13 12:35:21;;;;;;;11.50;6.45;;;7.40;99.90;;;;;;5050568;28;20498;-68
2021/12/13 12:38:24;;;;;;;11.32;6.43;;;7.40;99.90;;;;;;5048491;28;20047;-67
2021/12/13 12:41:12;;;;;;;12.63;7.45;;;7.30;99.90;;;;;;5050561;28;20158;-68
2021/12/13 12:43:52;;;;;;;16.48;8.30;;;7.40;99.90;;;;;;5058043;28;20021;-68
2021/12/13 12:46:18;;;;;;;14.98;8.18;;;7.30;99.90;;;;;;5042529;28;20033;-68
2021/12/13 12:48:46;;;;;;;14.27;7.80;;;7.30;99.90;;;;;;5052615;28;20021;-67
2021/12/13 12:51:17;;;;;;;14.75;7.70;;;7.40;99.90;;;;;;5060224;28;20017;-68
2021/12/13 12:53:59;;;;;;;15.10;8.98;;;7.40;99.90;;;;;;5066689;28;20029;-68
2021/12/13 12:56:46;;;;;;;13.52;7.15;;;7.40;99.90;;;;;;5050543;28;20025;-68
2021/12/13 12:59:27;;;;;;;12.65;7.57;;;7.40;99.90;;;;;;5037440;28;20064;-68
2021/12/13 13:02:04;;;;;;;13.93;7.00;;;7.40;99.90;;;;;;5049914;28;20045;-68
2021/12/13 13:04:32;;;;;;;13.75;8.30;;;7.40;99.90;;;;;;5041898;28;20021;-68
2021/12/13 13:07:28;;;;;;;14.48;8.43;;;7.40;99.90;;;;;;5049512;28;20060;-68
2021/12/13 13:13:00;;;;;;;12.60;8.10;;;7.40;99.90;;;;;;5031709;28;20159;-67
2021/12/13 13:15:33;;;;;;;16.10;8.38;;;7.50;99.90;;;;;;5039369;28;20481;-67
2021/12/13 13:18:16;;;;;;;15.32;9.52;;;7.50;99.90;;;;;;5044108;28;20026;-69
2021/12/13 13:20:44;;;;;;;15.52;9.10;;;7.50;99.90;;;;;;5042046;28;20103;-71
2021/12/13 13:23:11;;;;;;;12.48;7.97;;;7.50;99.90;;;;;;5050272;28;20496;-72
2021/12/13 13:25:44;;;;;;;13.65;8.85;;;7.50;99.90;;;;;;5049668;28;20021;-70
2021/12/13 13:28:32;;;;;;;13.77;8.18;;;7.50;99.90;;;;;;5042466;28;20437;-69
2021/12/13 13:31:20;;;;;;;14.20;8.68;;;7.50;99.90;;;;;;5038037;28;20370;-70
2021/12/13 13:33:57;;;;;;;14.07;8.63;;;7.50;99.90;;;;;;5042234;28;20056;-70
2021/12/13 13:36:46;;;;;;;14.57;8.13;;;7.50;99.90;;;;;;5041069;28;20112;-71
2021/12/13 13:39:26;;;;;;;14.75;8.45;;;7.50;99.90;;;;;;5041281;28;20036;-70
2021/12/13 13:42:08;;;;;;;16.25;9.32;;;7.50;99.90;;;;;;5038571;28;20017;-71